Time;durP1;ratioP1;P1;durP2;ratioP2;P2;SDS_P1;SDS_P2;PMS_P1;PMS_P2;Temp;Humidity;BMP_temperature;BMP_pressure;BME280_temperature;BME280_humidity;BME280_pressure;Samples;Min_cycle;Max_cycle;Signal;HPM_P1;HPM_P2
2022/03/15 00:00:48;;;;;;;17.53;15.73;;;;;;;-1.50;67.58;94397.09;5081038;28;20197;-72
2022/03/15 00:03:13;;;;;;;15.87;14.27;;;;;;;-1.66;67.58;94414.09;5082612;28;20197;-72
2022/03/15 00:05:41;;;;;;;16.50;15.00;;;;;;;-1.57;67.78;94408.97;5079453;28;20205;-70
2022/03/15 00:08:08;;;;;;;16.40;14.83;;;;;;;-1.60;68.04;94406.72;5090653;28;20216;-73
2022/03/15 00:10:33;;;;;;;18.13;15.47;;;;;;;-1.61;68.19;94398.25;5100096;28;20252;-71
2022/03/15 00:12:59;;;;;;;19.20;17.20;;;;;;;-1.75;67.84;94394.56;5101438;28;20232;-71
2022/03/15 00:15:25;;;;;;;17.10;14.37;;;;;;;-1.70;67.95;94402.53;5084047;28;20242;-71
2022/03/15 00:17:52;;;;;;;17.10;14.40;;;;;;;-1.48;67.03;94411.38;5102066;28;20185;-71
2022/03/15 00:20:21;;;;;;;17.17;15.57;;;;;;;-1.57;67.10;94412.31;5098579;28;20217;-72
2022/03/15 00:22:47;;;;;;;15.90;14.50;;;;;;;-1.52;66.77;94406.69;5082181;28;20199;-71
2022/03/15 00:25:17;;;;;;;15.97;14.77;;;;;;;-1.59;67.70;94398.06;5099026;28;20551;-72
2022/03/15 00:27:47;;;;;;;15.17;13.97;;;;;;;-1.63;67.20;94399.38;5082296;28;20191;-72
2022/03/15 00:30:14;;;;;;;27.47;17.70;;;;;;;-1.93;67.66;94386.25;5100834;28;20228;-71
2022/03/15 00:32:40;;;;;;;21.10;16.23;;;;;;;-1.83;67.47;94380.97;5100546;28;20307;-71
2022/03/15 00:35:16;;;;;;;18.77;16.73;;;;;;;-1.70;67.59;94387.19;5098574;28;20220;-72
2022/03/15 00:37:45;;;;;;;18.03;14.93;;;;;;;-2.29;68.77;94384.16;5099784;28;20255;-72
2022/03/15 00:40:13;;;;;;;15.70;13.57;;;;;;;-2.20;68.52;94386.56;5098564;28;20232;-71
2022/03/15 00:42:39;;;;;;;16.63;14.90;;;;;;;-1.77;68.43;94391.38;5102190;28;20208;-72
2022/03/15 00:45:05;;;;;;;15.20;13.80;;;;;;;-1.91;68.05;94397.13;5083445;28;20265;-72
2022/03/15 00:47:31;;;;;;;16.03;14.83;;;;;;;-1.99;69.15;94393.75;5100142;28;20227;-70
2022/03/15 00:49:57;;;;;;;14.53;13.27;;;;;;;-2.00;68.26;94375.06;5099831;28;20232;-72
2022/03/15 00:52:22;;;;;;;14.10;13.07;;;;;;;-2.57;68.44;94299.25;5100776;28;20184;-72
2022/03/15 00:54:48;;;;;;;14.77;13.47;;;;;;;-1.74;68.54;94385.94;5096562;28;20243;-70
2022/03/15 00:57:14;;;;;;;15.43;14.03;;;;;;;-2.02;67.99;94378.72;5099894;28;20624;-71
2022/03/15 00:59:39;;;;;;;14.50;13.03;;;;;;;-2.15;68.81;94379.19;5097233;28;20237;-74
2022/03/15 01:02:05;;;;;;;14.93;13.63;;;;;;;-1.96;68.02;94360.97;5100115;28;20227;-73
2022/03/15 01:04:31;;;;;;;15.03;13.43;;;;;;;-1.89;68.51;94356.81;5097120;28;20219;-73
2022/03/15 01:06:56;;;;;;;19.50;13.63;;;;;;;-1.80;69.06;94360.16;5100180;28;20250;-73
2022/03/15 01:09:21;;;;;;;15.53;13.90;;;;;;;-1.92;69.26;94358.91;5098099;28;20230;-71
2022/03/15 01:11:47;;;;;;;15.93;14.33;;;;;;;-2.40;69.93;94354.56;5100964;28;20177;-71
2022/03/15 01:14:12;;;;;;;15.87;14.40;;;;;;;-2.73;70.57;94344.41;5098831;28;20285;-71
2022/03/15 01:16:38;;;;;;;15.57;14.20;;;;;;;-2.28;68.66;94353.28;5100808;28;20237;-71
2022/03/15 01:19:06;;;;;;;14.50;13.20;;;;;;;-2.00;68.14;94362.28;5100681;28;20232;-70
2022/03/15 01:21:32;;;;;;;15.90;14.40;;;;;;;-1.74;67.32;94365.44;5100042;28;20181;-71
2022/03/15 01:23:57;;;;;;;14.97;13.50;;;;;;;-1.95;67.06;94331.88;5099825;28;20215;-71
2022/03/15 01:26:23;;;;;;;15.90;14.33;;;;;;;-1.76;67.92;94367.34;5097859;28;20210;-70
2022/03/15 01:28:48;;;;;;;15.83;14.43;;;;;;;-2.23;68.24;94345.97;5099821;28;20248;-71
2022/03/15 01:31:14;;;;;;;17.90;14.90;;;;;;;-2.08;67.38;94357.16;5099190;28;20196;-70
2022/03/15 01:33:39;;;;;;;15.27;14.03;;;;;;;-2.04;68.11;94357.63;5081758;28;20231;-71
2022/03/15 01:36:05;;;;;;;14.60;13.30;;;;;;;-1.97;68.39;94369.63;5102393;28;20202;-71
2022/03/15 01:38:34;;;;;;;19.07;14.17;;;;;;;-2.17;68.57;94376.00;5079815;28;20664;-70
2022/03/15 01:40:59;;;;;;;15.60;14.23;;;;;;;-2.40;69.47;94364.81;5100250;28;20188;-72
2022/03/15 01:43:25;;;;;;;20.77;15.30;;;;;;;-2.49;69.67;94373.38;5101357;28;20258;-71
2022/03/15 01:45:50;;;;;;;16.50;14.87;;;;;;;-2.60;69.00;94344.78;5099049;28;20200;-70
2022/03/15 01:48:16;;;;;;;15.40;14.00;;;;;;;-2.48;68.32;94335.84;5097648;28;20191;-72
2022/03/15 01:50:41;;;;;;;15.50;13.93;;;;;;;-2.33;68.47;94365.75;5101011;28;20198;-72
2022/03/15 01:53:07;;;;;;;17.00;14.33;;;;;;;-2.24;68.37;94366.56;5096966;28;20205;-71
2022/03/15 01:55:34;;;;;;;15.63;14.20;;;;;;;-2.44;68.66;94355.81;5099755;28;20197;-71
2022/03/15 01:57:59;;;;;;;14.80;13.50;;;;;;;-2.22;67.53;94380.78;5082449;28;20203;-71
2022/03/15 02:00:25;;;;;;;15.00;13.70;;;;;;;-2.41;67.89;94380.28;5081247;28;20216;-72
2022/03/15 02:02:51;;;;;;;15.87;13.87;;;;;;;-2.19;67.22;94390.72;5098760;28;20189;-72
2022/03/15 02:05:16;;;;;;;14.50;13.33;;;;;;;-2.49;67.77;94396.41;5098346;28;20235;-71
2022/03/15 02:07:42;;;;;;;16.10;14.63;;;;;;;-2.55;68.26;94391.13;5099825;28;20227;-72
2022/03/15 02:10:07;;;;;;;15.47;14.00;;;;;;;-2.20;67.67;94378.06;5097042;28;20236;-72
2022/03/15 02:12:38;;;;;;;14.93;13.60;;;;;;;-2.42;67.89;94379.50;5098195;28;20208;-71
2022/03/15 02:15:06;;;;;;;14.60;12.83;;;;;;;-2.12;66.62;94378.88;5097796;28;20293;-72
2022/03/15 02:17:32;;;;;;;13.80;12.60;;;;;;;-2.11;66.77;94367.69;5099516;28;20180;-72
2022/03/15 02:19:58;;;;;;;13.97;12.93;;;;;;;-2.27;66.90;94349.78;5097818;28;20281;-72
2022/03/15 02:22:24;;;;;;;14.60;13.30;;;;;;;-2.25;68.12;94376.00;5097961;28;20185;-72
2022/03/15 02:24:49;;;;;;;14.17;13.00;;;;;;;-2.58;67.87;94348.78;5095668;28;20266;-71
2022/03/15 02:27:15;;;;;;;13.77;12.70;;;;;;;-2.32;67.69;94367.34;5099329;28;20192;-71
2022/03/15 02:29:41;;;;;;;13.97;12.87;;;;;;;-2.51;67.26;94325.94;5102609;28;20224;-71
2022/03/15 02:32:07;;;;;;;14.53;13.37;;;;;;;-2.57;68.14;94319.72;5098804;28;20196;-72
2022/03/15 02:34:33;;;;;;;13.83;12.53;;;;;;;-2.60;67.54;94330.22;5096410;28;20239;-71
2022/03/15 02:36:58;;;;;;;14.07;12.97;;;;;;;-2.63;68.62;94307.53;5095379;28;20196;-71
2022/03/15 02:39:24;;;;;;;13.13;12.23;;;;;;;-2.91;67.55;94302.88;5096229;28;20228;-71
2022/03/15 02:41:52;;;;;;;13.57;12.43;;;;;;;-2.40;66.37;94336.66;5097743;28;20874;-72
2022/03/15 02:44:17;;;;;;;13.90;12.70;;;;;;;-2.27;66.49;94326.75;5097313;28;20224;-71
2022/03/15 02:46:48;;;;;;;13.93;12.70;;;;;;;-2.34;65.49;94343.72;5098580;28;20239;-71
2022/03/15 02:49:13;;;;;;;13.87;12.77;;;;;;;-2.52;65.98;94316.69;5099245;28;20221;-72
2022/03/15 02:51:39;;;;;;;14.80;13.33;;;;;;;-2.71;66.62;94322.88;5099676;28;20189;-72
2022/03/15 02:54:11;;;;;;;14.40;13.10;;;;;;;-2.43;66.91;94347.19;5101305;28;20231;-72
2022/03/15 02:56:43;;;;;;;13.80;12.27;;;;;;;-2.27;65.80;94347.22;5083177;28;20216;-71
2022/03/15 02:59:10;;;;;;;15.10;14.10;;;;;;;-2.22;65.38;94344.19;5102964;28;20239;-71
2022/03/15 03:01:35;;;;;;;14.07;13.03;;;;;;;-2.20;66.19;94353.31;5098036;28;20275;-72
2022/03/15 03:04:01;;;;;;;15.23;13.70;;;;;;;-2.46;68.93;94346.72;5103293;28;20236;-71
2022/03/15 03:06:27;;;;;;;14.33;13.37;;;;;;;-2.73;67.58;94335.00;5100211;28;20196;-71
2022/03/15 03:08:52;;;;;;;14.80;13.63;;;;;;;-2.47;68.17;94351.03;5096975;28;20231;-72
2022/03/15 03:11:18;;;;;;;13.50;12.40;;;;;;;-2.25;67.52;94340.19;5099238;28;20189;-71
2022/03/15 03:13:44;;;;;;;14.80;13.57;;;;;;;-2.51;66.63;94331.84;5096526;28;20236;-71
2022/03/15 03:16:13;;;;;;;15.53;14.33;;;;;;;-2.84;67.65;94306.38;5100001;28;20189;-71
2022/03/15 03:18:40;;;;;;;13.90;12.80;;;;;;;-2.40;68.13;94336.66;5102561;28;20734;-71
2022/03/15 03:21:06;;;;;;;13.33;12.40;;;;;;;-3.22;66.58;94274.50;5094456;28;20199;-72
2022/03/15 03:23:34;;;;;;;13.70;12.70;;;;;;;-3.05;68.23;94324.69;5100865;28;20227;-71
2022/03/15 03:26:01;;;;;;;12.00;11.20;;;;;;;-2.61;66.30;94318.41;5083854;28;20188;-72
2022/03/15 03:28:33;;;;;;;14.37;13.27;;;;;;;-2.59;66.76;94305.47;5099530;28;20243;-71
2022/03/15 03:30:59;;;;;;;11.87;11.03;;;;;;;-2.48;64.44;94312.84;5101762;28;20187;-71
2022/03/15 03:33:25;;;;;;;12.27;11.47;;;;;;;-2.45;65.28;94321.00;5085615;28;20227;-71
2022/03/15 03:35:51;;;;;;;12.47;11.37;;;;;;;-2.72;65.79;94310.22;5103088;28;20177;-72
2022/03/15 03:38:17;;;;;;;11.67;10.80;;;;;;;-2.56;65.44;94288.06;5100768;28;20197;-71
2022/03/15 03:40:42;;;;;;;12.17;11.23;;;;;;;-2.47;66.18;94307.56;5101428;28;20215;-71
2022/03/15 03:43:08;;;;;;;13.87;12.73;;;;;;;-2.28;64.87;94314.13;5100701;28;20218;-72
2022/03/15 03:45:37;;;;;;;13.07;11.93;;;;;;;-2.55;66.00;94317.00;5103782;28;20219;-71
2022/03/15 03:48:04;;;;;;;12.97;11.97;;;;;;;-2.54;66.50;94313.47;5097309;28;20193;-72
2022/03/15 03:50:30;;;;;;;15.10;13.93;;;;;;;-2.68;66.91;94326.88;5101774;28;20251;-72
2022/03/15 03:52:55;;;;;;;13.37;12.37;;;;;;;-2.62;66.89;94306.59;5100273;28;20223;-71
2022/03/15 03:55:21;;;;;;;13.73;12.80;;;;;;;-2.49;65.23;94316.38;5101700;28;20284;-71
2022/03/15 03:57:47;;;;;;;12.87;11.77;;;;;;;-2.49;65.74;94335.03;5101369;28;20757;-71
2022/03/15 04:00:13;;;;;;;14.30;13.07;;;;;;;-2.56;65.25;94349.41;5102558;28;20225;-71
2022/03/15 04:02:39;;;;;;;13.00;12.10;;;;;;;-2.58;66.71;94359.00;5102086;28;20202;-71
2022/03/15 04:05:04;;;;;;;13.07;11.97;;;;;;;-2.59;67.06;94331.84;5082876;28;20220;-72
2022/03/15 04:07:30;;;;;;;20.77;15.27;;;;;;;-2.75;65.77;94361.66;5099017;28;20227;-71
2022/03/15 04:09:55;;;;;;;14.00;12.53;;;;;;;-2.79;66.82;94348.41;5103326;28;20228;-71
2022/03/15 04:12:22;;;;;;;15.37;13.87;;;;;;;-2.64;66.97;94367.28;5102360;28;20168;-72
2022/03/15 04:14:48;;;;;;;15.70;14.17;;;;;;;-2.52;67.54;94358.38;5099832;28;20323;-72
2022/03/15 04:17:15;;;;;;;15.30;13.73;;;;;;;-2.46;67.75;94367.97;5083655;28;20229;-71
2022/03/15 04:19:40;;;;;;;17.23;15.53;;;;;;;-2.40;67.82;94367.34;5102898;28;20233;-72
2022/03/15 04:22:06;;;;;;;17.10;15.10;;;;;;;-2.47;67.91;94371.47;5098338;28;20218;-71
2022/03/15 04:24:32;;;;;;;16.07;14.47;;;;;;;-2.52;68.06;94367.81;5082785;28;20249;-71
2022/03/15 04:27:00;;;;;;;15.77;14.33;;;;;;;-2.68;68.05;94343.00;5098922;28;20241;-72
2022/03/15 04:29:28;;;;;;;18.23;16.43;;;;;;;-2.83;68.70;94352.22;5101072;28;20247;-71
2022/03/15 04:31:54;;;;;;;19.10;16.60;;;;;;;-2.61;68.79;94377.19;5100377;28;20189;-71
2022/03/15 04:34:19;;;;;;;18.93;15.70;;;;;;;-2.71;69.42;94366.31;5100250;28;20261;-71
2022/03/15 04:36:45;;;;;;;20.63;15.77;;;;;;;-2.56;69.12;94386.94;5100519;28;20191;-71
2022/03/15 04:39:12;;;;;;;18.63;16.87;;;;;;;-2.76;69.13;94360.06;5102033;28;20251;-71
2022/03/15 04:41:39;;;;;;;19.50;17.50;;;;;;;-2.67;68.31;94382.13;5098510;28;20200;-71
2022/03/15 04:44:06;;;;;;;21.20;15.80;;;;;;;-3.02;69.40;94383.16;5092175;28;20212;-83
2022/03/15 04:46:33;;;;;;;16.20;14.63;;;;;;;-2.96;70.62;94374.06;5099022;28;20804;-85
2022/03/15 04:48:59;;;;;;;17.50;15.73;;;;;;;-2.88;68.95;94377.41;5095492;28;20228;-83
2022/03/15 04:51:24;;;;;;;14.33;13.03;;;;;;;-3.22;69.83;94370.75;5100082;28;20191;-83
2022/03/15 04:53:51;;;;;;;16.77;14.27;;;;;;;-2.64;68.82;94387.75;5101606;28;20242;-78
2022/03/15 04:56:16;;;;;;;15.23;13.77;;;;;;;-2.62;68.58;94359.47;5100151;28;20207;-79
2022/03/15 04:58:42;;;;;;;15.37;14.00;;;;;;;-2.65;68.23;94347.00;5097023;28;20228;-76
2022/03/15 05:01:07;;;;;;;13.50;12.20;;;;;;;-2.42;67.05;94369.25;5099795;28;20195;-84
2022/03/15 05:03:35;;;;;;;14.17;12.93;;;;;;;-2.66;67.63;94361.53;5095463;28;20224;-78
2022/03/15 05:06:01;;;;;;;14.30;13.20;;;;;;;-2.65;66.95;94326.56;5097827;28;20877;-80
2022/03/15 05:08:26;;;;;;;17.47;13.13;;;;;;;-2.97;67.57;94347.69;5079821;28;20223;-79
2022/03/15 05:11:07;;;;;;;16.10;14.40;;;;;;;-3.10;67.89;94301.38;5098286;28;20192;-83
2022/03/15 05:13:45;;;;;;;15.50;14.17;;;;;;;-2.27;68.28;94385.56;5099409;28;20283;-89
2022/03/15 05:16:17;;;;;;;14.80;13.30;;;;;;;-2.07;66.61;94384.31;5097777;28;20218;-80
2022/03/15 05:18:45;;;;;;;17.63;15.93;;;;;;;-2.44;67.59;94391.63;5098324;28;20232;-77
2022/03/15 05:21:14;;;;;;;17.37;15.67;;;;;;;-2.60;68.26;94371.13;5077328;28;20197;-92
2022/03/15 05:23:40;;;;;;;16.03;14.43;;;;;;;-2.20;67.40;94378.88;5098199;28;20224;-84
2022/03/15 05:26:06;;;;;;;17.53;15.83;;;;;;;-1.69;65.93;94382.88;5096051;28;20192;-85
2022/03/15 05:28:32;;;;;;;17.00;15.37;;;;;;;-1.37;65.33;94402.53;5094629;28;20291;-84
2022/03/15 05:30:58;;;;;;;15.70;14.27;;;;;;;-1.51;66.61;94393.75;5099555;28;20261;-81
2022/03/15 05:33:23;;;;;;;17.33;15.57;;;;;;;-1.27;68.32;94398.03;5097050;28;20321;-72
2022/03/15 05:35:49;;;;;;;17.17;15.77;;;;;;;-1.28;65.35;94375.94;5099304;28;20272;-73
2022/03/15 05:38:14;;;;;;;17.83;16.10;;;;;;;-1.15;65.24;94394.16;5093520;28;20177;-72
2022/03/15 05:40:40;;;;;;;18.23;16.27;;;;;;;-1.00;64.45;94389.94;5097078;28;20193;-73
2022/03/15 05:43:05;;;;;;;16.27;14.67;;;;;;;-0.91;64.43;94394.09;5102760;28;20256;-72
2022/03/15 05:45:31;;;;;;;14.83;13.30;;;;;;;-0.80;63.92;94402.22;5096663;28;20227;-72
2022/03/15 05:47:57;;;;;;;17.00;15.43;;;;;;;-0.97;64.39;94374.25;5099220;28;20460;-72
2022/03/15 05:50:22;;;;;;;16.80;15.20;;;;;;;-0.80;63.92;94393.72;5093455;28;20220;-72
2022/03/15 05:52:48;;;;;;;21.50;18.87;;;;;;;-0.75;64.26;94399.16;5077838;28;20279;-73
2022/03/15 05:55:14;;;;;;;22.30;18.77;;;;;;;-0.66;64.24;94395.59;5100250;28;20242;-73
2022/03/15 05:57:39;;;;;;;25.10;19.80;;;;;;;-0.99;63.40;94353.09;5100277;28;20188;-73
2022/03/15 06:00:07;;;;;;;24.60;19.70;;;;;;;-0.81;62.94;94399.81;5081009;28;20224;-73
2022/03/15 06:02:32;;;;;;;25.03;20.07;;;;;;;-0.87;62.94;94396.16;5097533;28;20181;-73
2022/03/15 06:04:59;;;;;;;30.93;21.70;;;;;;;-0.62;62.24;94404.53;5097199;28;20233;-72
2022/03/15 06:07:26;;;;;;;28.63;22.10;;;;;;;-0.50;62.18;94398.09;5098550;28;20222;-73
2022/03/15 06:09:52;;;;;;;34.60;23.23;;;;;;;-0.48;61.74;94352.53;5097119;28;20224;-74
2022/03/15 06:12:20;;;;;;;28.33;21.47;;;;;;;-0.17;61.52;94399.50;5099889;28;20244;-73
2022/03/15 06:14:46;;;;;;;27.70;22.20;;;;;;;0.00;60.40;94411.28;5096629;28;20232;-73
2022/03/15 06:17:11;;;;;;;29.87;21.30;;;;;;;0.20;60.50;94391.88;5097686;28;20204;-73
2022/03/15 06:19:36;;;;;;;27.50;22.13;;;;;;;0.32;59.48;94405.91;5098367;28;20239;-73
2022/03/15 06:22:02;;;;;;;30.67;24.77;;;;;;;0.18;60.07;94406.66;5098527;28;20188;-73
2022/03/15 06:24:28;;;;;;;29.00;24.03;;;;;;;0.35;59.76;94409.88;5098532;28;20283;-73
2022/03/15 06:26:53;;;;;;;35.73;23.20;;;;;;;0.26;60.01;94406.59;5079697;28;20200;-73
2022/03/15 06:29:19;;;;;;;31.83;24.13;;;;;;;0.27;60.05;94395.34;5099898;28;20248;-73
2022/03/15 06:31:44;;;;;;;33.97;26.00;;;;;;;0.50;59.61;94403.81;5099488;28;20196;-73
2022/03/15 06:34:10;;;;;;;32.47;25.77;;;;;;;0.25;59.77;94353.63;5096549;28;20232;-73
2022/03/15 06:36:35;;;;;;;45.23;27.93;;;;;;;0.40;59.91;94398.13;5098472;28;20195;-74
2022/03/15 06:39:03;;;;;;;52.80;36.10;;;;;;;0.86;59.36;94409.91;5097779;28;20236;-73
2022/03/15 06:41:28;;;;;;;53.37;36.23;;;;;;;1.02;58.91;94414.91;5099227;28;20192;-73
2022/03/15 06:43:54;;;;;;;48.97;33.50;;;;;;;0.86;59.01;94411.66;5080260;28;20213;-73
2022/03/15 06:46:20;;;;;;;44.50;28.87;;;;;;;0.81;58.96;94414.78;5098128;28;20196;-73
2022/03/15 06:48:45;;;;;;;41.23;27.87;;;;;;;0.79;58.97;94408.22;5097348;28;20250;-73
2022/03/15 06:51:11;;;;;;;42.43;27.37;;;;;;;0.77;59.16;94423.81;5096703;28;20188;-73
2022/03/15 06:53:36;;;;;;;41.47;28.13;;;;;;;0.66;59.76;94413.97;5080002;28;20220;-73
2022/03/15 06:56:02;;;;;;;38.77;26.67;;;;;;;0.95;59.42;94419.13;5097911;28;20257;-73
2022/03/15 06:58:28;;;;;;;36.23;22.60;;;;;;;0.88;58.18;94413.13;5080277;28;20232;-72
2022/03/15 07:00:55;;;;;;;33.30;24.60;;;;;;;1.06;57.80;94416.13;5100956;28;20228;-72
2022/03/15 07:03:21;;;;;;;32.67;22.73;;;;;;;1.28;57.25;94428.13;5099481;28;20191;-72
2022/03/15 07:05:46;;;;;;;34.57;23.37;;;;;;;1.17;57.50;94428.56;5098940;28;20202;-73
2022/03/15 07:08:12;;;;;;;31.83;23.57;;;;;;;1.44;56.77;94430.50;5079783;28;20223;-72
2022/03/15 07:10:40;;;;;;;30.23;22.80;;;;;;;1.51;56.13;94421.09;5098332;28;20244;-73
2022/03/15 07:13:06;;;;;;;30.23;23.03;;;;;;;1.19;57.49;94425.81;5078774;28;20216;-71
2022/03/15 07:15:31;;;;;;;31.23;25.03;;;;;;;1.28;57.47;94435.03;5083330;28;20192;-73
2022/03/15 07:17:58;;;;;;;35.70;25.73;;;;;;;1.50;57.43;94434.13;5094948;28;20263;-77
2022/03/15 07:20:25;;;;;;;32.97;27.90;;;;;;;1.48;57.10;94406.00;5095650;28;20223;-79
2022/03/15 07:22:51;;;;;;;37.77;25.50;;;;;;;1.88;56.19;94438.16;5097901;28;20196;-77
2022/03/15 07:25:17;;;;;;;36.03;28.80;;;;;;;2.01;55.96;94434.94;5096654;28;20246;-79
2022/03/15 07:27:43;;;;;;;37.33;27.87;;;;;;;2.22;55.22;94437.53;5087069;28;20196;-86
2022/03/15 07:30:10;;;;;;;36.80;28.27;;;;;;;2.24;55.68;94425.28;5076030;28;20220;-88
2022/03/15 07:32:36;;;;;;;39.73;25.77;;;;;;;2.35;54.63;94422.22;5075005;28;20219;-81
2022/03/15 07:35:03;;;;;;;35.90;25.77;;;;;;;2.26;54.59;94431.84;5094452;28;20281;-85
2022/03/15 07:37:28;;;;;;;36.30;26.60;;;;;;;2.31;54.50;94428.69;5099225;28;20185;-84
2022/03/15 07:39:53;;;;;;;36.93;25.63;;;;;;;2.12;56.65;94440.41;5081764;28;20263;-88
2022/03/15 07:42:19;;;;;;;36.53;26.57;;;;;;;2.20;55.30;94417.09;5099799;28;20200;-87
2022/03/15 07:44:45;;;;;;;38.73;26.83;;;;;;;2.34;54.02;94423.19;5094547;28;20315;-80
2022/03/15 07:47:14;;;;;;;38.33;26.87;;;;;;;2.03;56.68;94440.69;5096731;28;20184;-83
2022/03/15 07:49:39;;;;;;;48.67;29.93;;;;;;;2.28;56.44;94429.06;5100164;28;20239;-88
2022/03/15 07:52:06;;;;;;;58.00;36.00;;;;;;;2.43;55.88;94424.66;5099056;28;20256;-89
2022/03/15 07:54:31;;;;;;;40.37;30.73;;;;;;;2.03;57.21;94431.19;5081887;28;20265;-80
2022/03/15 07:56:57;;;;;;;41.97;30.97;;;;;;;2.06;57.85;94435.97;5079921;28;20189;-81
2022/03/15 07:59:22;;;;;;;43.47;31.73;;;;;;;2.14;57.90;94437.66;5081864;28;20219;-90
2022/03/15 08:01:48;;;;;;;60.87;34.37;;;;;;;2.55;58.13;94433.50;5099802;28;20185;-87
2022/03/15 08:04:14;;;;;;;55.30;32.80;;;;;;;2.97;56.01;94433.44;5099583;28;20217;-84
2022/03/15 08:06:39;;;;;;;91.20;60.27;;;;;;;2.64;56.11;94394.50;5098903;28;20189;-84
2022/03/15 08:09:05;;;;;;;55.47;36.03;;;;;;;2.89;55.97;94416.31;5098363;28;20243;-80
2022/03/15 08:11:32;;;;;;;68.97;41.07;;;;;;;2.87;56.22;94425.22;5099709;28;20304;-93
2022/03/15 08:13:58;;;;;;;161.60;65.50;;;;;;;3.08;55.59;94391.66;5103052;28;20236;-93
2022/03/15 08:16:24;;;;;;;63.77;36.27;;;;;;;3.00;56.60;94427.91;5080764;28;20180;-84
2022/03/15 08:18:51;;;;;;;101.80;48.43;;;;;;;3.15;56.39;94426.00;5099271;28;20231;-84
2022/03/15 08:21:17;;;;;;;46.50;32.07;;;;;;;3.46;54.15;94400.59;5100278;28;20173;-83
2022/03/15 08:23:44;;;;;;;43.07;30.40;;;;;;;3.51;52.23;94408.56;5097600;28;20242;-79
2022/03/15 08:26:09;;;;;;;39.83;28.60;;;;;;;3.67;52.16;94422.94;5078819;28;20223;-87
2022/03/15 08:28:36;;;;;;;66.83;42.60;;;;;;;3.74;52.49;94424.53;5097117;28;20232;-90
2022/03/15 08:31:01;;;;;;;42.20;26.67;;;;;;;3.96;50.45;94426.03;5099420;28;20199;-85
2022/03/15 08:33:27;;;;;;;88.90;42.17;;;;;;;3.90;51.00;94439.72;5083199;28;20219;-87
2022/03/15 08:35:53;;;;;;;40.10;26.87;;;;;;;4.10;51.41;94429.44;5097436;28;20196;-85
2022/03/15 08:38:18;;;;;;;37.20;27.87;;;;;;;4.33;49.94;94427.31;5096416;28;20463;-84
2022/03/15 08:40:44;;;;;;;42.67;28.00;;;;;;;4.42;49.63;94431.34;5101574;28;20243;-84
2022/03/15 08:43:10;;;;;;;39.57;26.90;;;;;;;4.30;49.55;94401.84;5097828;28;20283;-84
2022/03/15 08:45:36;;;;;;;47.77;26.60;;;;;;;4.11;49.01;94371.63;5098839;28;20192;-83
2022/03/15 08:48:03;;;;;;;43.60;26.80;;;;;;;4.25;49.79;94384.34;5098314;28;20210;-79
2022/03/15 08:50:29;;;;;;;38.97;27.17;;;;;;;4.62;49.94;94403.69;5097148;28;20181;-85
2022/03/15 08:52:55;;;;;;;35.77;26.03;;;;;;;4.78;48.39;94398.09;5100560;28;20216;-81
2022/03/15 08:55:22;;;;;;;37.90;27.50;;;;;;;4.97;48.59;94403.28;5098125;28;20269;-80
2022/03/15 08:57:48;;;;;;;34.93;26.87;;;;;;;5.00;48.46;94398.72;5080103;28;20184;-82
2022/03/15 09:00:14;;;;;;;40.23;28.37;;;;;;;4.91;48.30;94393.75;5097438;28;20235;-80
2022/03/15 09:02:40;;;;;;;31.13;25.90;;;;;;;5.04;47.75;94381.78;5100311;28;20785;-82
2022/03/15 09:05:06;;;;;;;32.80;26.00;;;;;;;5.13;47.75;94402.09;5099428;28;20215;-83
2022/03/15 09:07:31;;;;;;;36.13;25.17;;;;;;;5.18;47.79;94394.50;5096390;28;20213;-82
2022/03/15 09:09:57;;;;;;;42.57;31.73;;;;;;;5.38;47.20;94399.63;5098730;28;20258;-86
2022/03/15 09:12:23;;;;;;;39.93;28.07;;;;;;;5.28;46.91;94388.91;5099198;28;20180;-83
2022/03/15 09:14:49;;;;;;;39.20;26.67;;;;;;;5.07;47.80;94369.25;5099394;28;20235;-81
2022/03/15 09:17:15;;;;;;;39.57;29.30;;;;;;;5.21;47.61;94388.94;5101465;28;20719;-84
2022/03/15 09:19:42;;;;;;;52.83;35.13;;;;;;;5.19;47.82;94392.69;5097811;28;20221;-86
2022/03/15 09:22:08;;;;;;;35.23;26.67;;;;;;;5.45;46.87;94385.66;5096913;28;20175;-80
2022/03/15 09:24:36;;;;;;;43.37;28.57;;;;;;;5.45;47.23;94388.25;5095643;28;20239;-83
2022/03/15 09:27:03;;;;;;;40.83;26.63;;;;;;;5.28;46.90;94363.00;5099445;28;20180;-82
2022/03/15 09:29:29;;;;;;;35.73;26.83;;;;;;;5.18;47.31;94347.91;5096054;28;20217;-82
2022/03/15 09:31:54;;;;;;;49.07;36.23;;;;;;;5.59;46.49;94386.41;5097085;28;20189;-83
2022/03/15 09:34:23;;;;;;;47.30;29.60;;;;;;;5.54;47.40;94378.50;5076677;28;20224;-82
2022/03/15 09:36:49;;;;;;;36.70;26.10;;;;;;;5.72;45.40;94366.47;5091644;28;20185;-82
2022/03/15 09:39:15;;;;;;;34.97;27.47;;;;;;;5.52;45.68;94367.53;5098984;28;20223;-82
2022/03/15 09:41:42;;;;;;;35.87;26.57;;;;;;;5.51;47.13;94381.50;5095813;28;20193;-79
2022/03/15 09:44:09;;;;;;;41.67;27.80;;;;;;;5.86;46.29;94369.81;5093267;28;20252;-81
2022/03/15 09:46:43;;;;;;;38.27;26.57;;;;;;;5.76;46.23;94366.84;5098556;28;20252;-81
2022/03/15 09:49:09;;;;;;;43.63;27.03;;;;;;;6.05;44.87;94366.34;5094747;28;20241;-82
2022/03/15 09:51:36;;;;;;;43.13;25.83;;;;;;;5.90;45.09;94382.16;5099291;28;20196;-84
2022/03/15 09:54:06;;;;;;;40.60;27.07;;;;;;;5.62;45.60;94371.28;5098369;28;20262;-84
2022/03/15 09:56:38;;;;;;;41.47;28.90;;;;;;;6.07;45.50;94377.31;5096930;28;20247;-83
2022/03/15 09:59:26;;;;;;;37.67;26.93;;;;;;;6.15;44.97;94359.69;5097583;28;20235;-87
2022/03/15 10:01:53;;;;;;;47.33;28.93;;;;;;;6.38;44.46;94372.91;5100091;28;20213;-85
2022/03/15 10:04:20;;;;;;;37.40;28.93;;;;;;;5.98;43.81;94340.44;5076664;28;20237;-85
2022/03/15 10:06:46;;;;;;;42.40;27.67;;;;;;;6.31;44.61;94358.41;5097074;28;20195;-83
2022/03/15 10:09:13;;;;;;;43.83;27.33;;;;;;;6.32;44.48;94358.19;5097596;28;20288;-86
2022/03/15 10:11:39;;;;;;;34.50;27.27;;;;;;;6.60;43.33;94349.22;5096500;28;20192;-82
2022/03/15 10:14:05;;;;;;;37.77;28.03;;;;;;;6.46;43.63;94343.31;5081746;28;21102;-82
2022/03/15 10:16:32;;;;;;;38.63;28.20;;;;;;;6.60;43.77;94352.59;5096772;28;20184;-80
2022/03/15 10:18:59;;;;;;;49.43;28.30;;;;;;;6.66;42.93;94348.38;5099641;28;20233;-82
2022/03/15 10:21:37;;;;;;;41.10;27.07;;;;;;;6.70;42.26;94329.56;5097226;28;20177;-83
2022/03/15 10:24:05;;;;;;;36.53;27.40;;;;;;;6.60;42.09;94331.81;5081327;28;20235;-82
2022/03/15 10:26:31;;;;;;;39.90;27.53;;;;;;;6.67;41.78;94304.03;5079937;28;20212;-82
2022/03/15 10:28:57;;;;;;;34.57;26.57;;;;;;;6.89;42.15;94328.59;5095079;28;20237;-78
2022/03/15 10:31:24;;;;;;;44.63;28.07;;;;;;;6.93;42.10;94340.13;5099175;28;20269;-82
2022/03/15 10:33:52;;;;;;;39.73;26.50;;;;;;;7.14;41.44;94337.16;5099003;28;20228;-84
2022/03/15 10:36:21;;;;;;;38.20;28.10;;;;;;;7.22;41.93;94339.44;5099979;28;20189;-81
2022/03/15 10:38:51;;;;;;;41.60;28.33;;;;;;;7.09;41.44;94308.44;5095611;28;20231;-81
2022/03/15 10:41:18;;;;;;;45.73;30.33;;;;;;;7.31;42.37;94327.78;5095791;28;20184;-80
2022/03/15 10:43:49;;;;;;;41.77;28.10;;;;;;;7.28;41.57;94312.63;5094612;28;20306;-80
2022/03/15 10:46:24;;;;;;;37.90;29.17;;;;;;;7.52;41.07;94314.34;5098618;28;20179;-81
2022/03/15 10:49:00;;;;;;;34.13;27.60;;;;;;;7.79;39.27;94310.44;5096399;28;20235;-80
2022/03/15 10:51:25;;;;;;;41.93;29.13;;;;;;;7.56;39.48;94281.72;5080296;28;20190;-81
2022/03/15 10:54:00;;;;;;;40.33;29.23;;;;;;;7.44;39.78;94283.44;5078751;28;20287;-81
2022/03/15 10:56:26;;;;;;;36.83;27.90;;;;;;;7.92;37.69;94294.63;5096902;28;20731;-81
2022/03/15 10:59:02;;;;;;;33.13;28.37;;;;;;;7.83;37.36;94298.56;5096245;28;20243;-87
2022/03/15 11:04:20;;;;;;;33.23;24.73;;;;;;;7.91;36.00;94287.06;5095025;28;20234;-86
2022/03/15 11:06:50;;;;;;;31.03;23.23;;;;;;;7.90;35.92;94281.06;5079894;28;20192;-81
2022/03/15 11:09:21;;;;;;;33.37;23.60;;;;;;;7.93;34.41;94280.63;5094927;28;20224;-81
2022/03/15 11:12:01;;;;;;;25.77;21.10;;;;;;;8.08;33.50;94275.00;5082416;28;20231;-82
2022/03/15 11:14:39;;;;;;;24.37;20.90;;;;;;;8.05;33.87;94237.25;5099537;28;20249;-83
2022/03/15 11:17:18;;;;;;;29.27;20.97;;;;;;;8.27;32.34;94260.16;5082540;28;20188;-87
2022/03/15 11:19:45;;;;;;;27.60;21.27;;;;;;;8.29;32.01;94258.13;5086451;28;20241;-84
2022/03/15 11:22:15;;;;;;;20.97;18.00;;;;;;;8.52;31.11;94242.53;5100386;28;20196;-82